sensor_id;sensor_type;location;lat;lon;timestamp;pressure;altitude;pressure_sealevel;temperature;humidity
45255;BME280;30989;52.078;21.014;2022-12-11T00:02:16;163361.41;;;-1.48;100.00
45255;BME280;30989;52.078;21.014;2022-12-11T00:04:45;163370.72;;;-1.45;100.00
45255;BME280;30989;52.078;21.014;2022-12-11T00:07:11;163376.03;;;-1.43;100.00
45255;BME280;30989;52.078;21.014;2022-12-11T00:09:36;163364.06;;;-1.47;100.00
45255;BME280;30989;52.078;21.014;2022-12-11T00:12:02;163370.72;;;-1.45;100.00
45255;BME280;30989;52.078;21.014;2022-12-11T00:14:29;163362.75;;;-1.48;100.00
45255;BME280;30989;52.078;21.014;2022-12-11T00:16:56;163345.47;;;-1.54;100.00
45255;BME280;30989;52.078;21.014;2022-12-11T00:19:21;163348.13;;;-1.53;100.00
45255;BME280;30989;52.078;21.014;2022-12-11T00:21:47;163340.16;;;-1.56;100.00
45255;BME280;30989;52.078;21.014;2022-12-11T00:24:12;163334.84;;;-1.58;100.00
45255;BME280;30989;52.078;21.014;2022-12-11T00:26:38;163330.88;;;-1.60;100.00
45255;BME280;30989;52.078;21.014;2022-12-11T00:29:04;163321.56;;;-1.64;100.00
45255;BME280;30989;52.078;21.014;2022-12-11T00:31:32;163316.25;;;-1.66;100.00
45255;BME280;30989;52.078;21.014;2022-12-11T00:34:00;163324.22;;;-1.63;100.00
45255;BME280;30989;52.078;21.014;2022-12-11T00:36:26;163321.56;;;-1.64;100.00
45255;BME280;30989;52.078;21.014;2022-12-11T00:38:52;163305.63;;;-1.70;100.00
45255;BME280;30989;52.078;21.014;2022-12-11T00:41:21;163295.00;;;-1.74;100.00
45255;BME280;30989;52.078;21.014;2022-12-11T00:43:47;163302.97;;;-1.71;100.00
45255;BME280;30989;52.078;21.014;2022-12-11T00:46:13;163293.69;;;-1.74;100.00
45255;BME280;30989;52.078;21.014;2022-12-11T00:48:38;163301.66;;;-1.71;100.00
45255;BME280;30989;52.078;21.014;2022-12-11T00:51:04;163302.97;;;-1.71;100.00
45255;BME280;30989;52.078;21.014;2022-12-11T00:53:30;163300.31;;;-1.72;100.00
45255;BME280;30989;52.078;21.014;2022-12-11T00:55:55;163288.38;;;-1.76;100.00
45255;BME280;30989;52.078;21.014;2022-12-11T00:58:22;163272.44;;;-1.82;100.00
45255;BME280;30989;52.078;21.014;2022-12-11T01:00:50;163275.09;;;-1.81;100.00
45255;BME280;30989;52.078;21.014;2022-12-11T01:03:16;163279.06;;;-1.80;100.00
45255;BME280;30989;52.078;21.014;2022-12-11T01:05:50;163284.38;;;-1.78;100.00
45255;BME280;30989;52.078;21.014;2022-12-11T01:08:16;163273.75;;;-1.82;100.00
45255;BME280;30989;52.078;21.014;2022-12-11T01:10:41;163277.75;;;-1.80;100.00
45255;BME280;30989;52.078;21.014;2022-12-11T01:13:07;163275.09;;;-1.81;100.00
45255;BME280;30989;52.078;21.014;2022-12-11T01:15:38;163283.06;;;-1.78;100.00
45255;BME280;30989;52.078;21.014;2022-12-11T01:18:04;163276.41;;;-1.81;100.00
45255;BME280;30989;52.078;21.014;2022-12-11T01:20:30;163269.78;;;-1.83;100.00
45255;BME280;30989;52.078;21.014;2022-12-11T01:22:58;163267.13;;;-1.84;100.00
45255;BME280;30989;52.078;21.014;2022-12-11T01:25:25;163247.22;;;-1.92;100.00
45255;BME280;30989;52.078;21.014;2022-12-11T01:27:52;163255.19;;;-1.89;100.00
45255;BME280;30989;52.078;21.014;2022-12-11T01:30:20;163256.50;;;-1.88;100.00
45255;BME280;30989;52.078;21.014;2022-12-11T01:32:50;163261.81;;;-1.86;100.00
45255;BME280;30989;52.078;21.014;2022-12-11T01:35:16;163260.47;;;-1.87;100.00
45255;BME280;30989;52.078;21.014;2022-12-11T01:37:42;163265.78;;;-1.85;100.00
45255;BME280;30989;52.078;21.014;2022-12-11T01:40:09;163279.06;;;-1.80;100.00
45255;BME280;30989;52.078;21.014;2022-12-11T01:42:36;163279.06;;;-1.80;100.00
45255;BME280;30989;52.078;21.014;2022-12-11T01:45:35;163285.72;;;-1.77;100.00
45255;BME280;30989;52.078;21.014;2022-12-11T01:48:07;163276.41;;;-1.81;100.00
45255;BME280;30989;52.078;21.014;2022-12-11T01:50:38;163255.19;;;-1.89;100.00
45255;BME280;30989;52.078;21.014;2022-12-11T01:53:08;163260.47;;;-1.87;100.00
45255;BME280;30989;52.078;21.014;2022-12-11T01:55:35;163248.53;;;-1.91;100.00
45255;BME280;30989;52.078;21.014;2022-12-11T01:58:02;163239.25;;;-1.95;100.00
45255;BME280;30989;52.078;21.014;2022-12-11T02:00:28;163240.56;;;-1.95;100.00
45255;BME280;30989;52.078;21.014;2022-12-11T02:02:54;163239.25;;;-1.95;100.00
45255;BME280;30989;52.078;21.014;2022-12-11T02:05:19;163240.56;;;-1.95;100.00
45255;BME280;30989;52.078;21.014;2022-12-11T02:07:47;163235.25;;;-1.97;100.00
45255;BME280;30989;52.078;21.014;2022-12-11T02:10:15;163247.22;;;-1.92;100.00
45255;BME280;30989;52.078;21.014;2022-12-11T02:13:00;163236.59;;;-1.96;100.00
45255;BME280;30989;52.078;21.014;2022-12-11T02:15:48;163243.22;;;-1.93;100.00
45255;BME280;30989;52.078;21.014;2022-12-11T02:18:32;163227.28;;;-2.00;100.00
45255;BME280;30989;52.078;21.014;2022-12-11T02:21:24;163215.34;;;-2.04;100.00
45255;BME280;30989;52.078;21.014;2022-12-11T02:24:10;163216.66;;;-2.04;100.00
45255;BME280;30989;52.078;21.014;2022-12-11T02:29:41;163194.09;;;-2.12;100.00
45255;BME280;30989;52.078;21.014;2022-12-11T02:32:13;163170.22;;;-2.21;100.00
45255;BME280;30989;52.078;21.014;2022-12-11T02:34:45;163183.47;;;-2.16;100.00
45255;BME280;30989;52.078;21.014;2022-12-11T02:37:19;163183.47;;;-2.16;100.00
45255;BME280;30989;52.078;21.014;2022-12-11T02:39:47;163160.91;;;-2.25;100.00
45255;BME280;30989;52.078;21.014;2022-12-11T02:42:14;163174.19;;;-2.20;100.00
45255;BME280;30989;52.078;21.014;2022-12-11T02:44:43;163121.09;;;-2.40;100.00
45255;BME280;30989;52.078;21.014;2022-12-11T02:47:12;163135.69;;;-2.35;100.00
45255;BME280;30989;52.078;21.014;2022-12-11T02:49:41;163154.28;;;-2.28;100.00
45255;BME280;30989;52.078;21.014;2022-12-11T02:52:09;163152.94;;;-2.28;100.00
45255;BME280;30989;52.078;21.014;2022-12-11T02:54:38;163148.97;;;-2.30;100.00
45255;BME280;30989;52.078;21.014;2022-12-11T02:57:10;163148.97;;;-2.30;100.00
45255;BME280;30989;52.078;21.014;2022-12-11T02:59:39;163145.00;;;-2.31;100.00
45255;BME280;30989;52.078;21.014;2022-12-11T03:02:06;163129.06;;;-2.37;100.00
45255;BME280;30989;52.078;21.014;2022-12-11T03:04:33;163142.34;;;-2.32;100.00
45255;BME280;30989;52.078;21.014;2022-12-11T03:07:09;163134.38;;;-2.35;100.00
45255;BME280;30989;52.078;21.014;2022-12-11T03:09:40;163131.72;;;-2.36;100.00
45255;BME280;30989;52.078;21.014;2022-12-11T03:12:08;163105.16;;;-2.46;100.00
45255;BME280;30989;52.078;21.014;2022-12-11T03:14:36;163131.72;;;-2.36;100.00
45255;BME280;30989;52.078;21.014;2022-12-11T03:20:01;163135.69;;;-2.35;100.00
45255;BME280;30989;52.078;21.014;2022-12-11T03:22:52;163135.69;;;-2.35;100.00
45255;BME280;30989;52.078;21.014;2022-12-11T03:25:25;163129.06;;;-2.37;100.00
45255;BME280;30989;52.078;21.014;2022-12-11T03:27:56;163127.72;;;-2.38;100.00
45255;BME280;30989;52.078;21.014;2022-12-11T03:30:27;163117.13;;;-2.42;100.00
45255;BME280;30989;52.078;21.014;2022-12-11T03:33:10;163111.81;;;-2.44;100.00
45255;BME280;30989;52.078;21.014;2022-12-11T03:35:43;163119.78;;;-2.41;100.00
45255;BME280;30989;52.078;21.014;2022-12-11T03:38:23;163125.06;;;-2.39;100.00
45255;BME280;30989;52.078;21.014;2022-12-11T03:40:55;163125.06;;;-2.39;100.00
45255;BME280;30989;52.078;21.014;2022-12-11T03:43:22;163125.06;;;-2.39;100.00
45255;BME280;30989;52.078;21.014;2022-12-11T03:45:50;163130.38;;;-2.37;100.00
45255;BME280;30989;52.078;21.014;2022-12-11T03:48:18;163130.38;;;-2.37;100.00
45255;BME280;30989;52.078;21.014;2022-12-11T03:50:46;163123.75;;;-2.39;100.00
45255;BME280;30989;52.078;21.014;2022-12-11T03:53:13;163113.13;;;-2.43;100.00
45255;BME280;30989;52.078;21.014;2022-12-11T03:55:40;163118.44;;;-2.41;100.00
45255;BME280;30989;52.078;21.014;2022-12-11T03:58:06;163115.78;;;-2.42;100.00
45255;BME280;30989;52.078;21.014;2022-12-11T04:00:31;163129.06;;;-2.37;100.00
45255;BME280;30989;52.078;21.014;2022-12-11T04:02:57;163130.38;;;-2.37;100.00
45255;BME280;30989;52.078;21.014;2022-12-11T04:05:40;163127.72;;;-2.38;100.00
45255;BME280;30989;52.078;21.014;2022-12-11T04:08:06;163125.06;;;-2.39;100.00
45255;BME280;30989;52.078;21.014;2022-12-11T04:10:31;163122.41;;;-2.40;100.00
45255;BME280;30989;52.078;21.014;2022-12-11T04:12:57;163117.13;;;-2.42;100.00
45255;BME280;30989;52.078;21.014;2022-12-11T04:15:22;163106.50;;;-2.46;100.00
45255;BME280;30989;52.078;21.014;2022-12-11T04:17:48;163117.13;;;-2.42;100.00
45255;BME280;30989;52.078;21.014;2022-12-11T04:20:32;163105.16;;;-2.46;100.00
45255;BME280;30989;52.078;21.014;2022-12-11T04:23:17;163119.78;;;-2.41;100.00
45255;BME280;30989;52.078;21.014;2022-12-11T04:26:14;163122.41;;;-2.40;100.00
45255;BME280;30989;52.078;21.014;2022-12-11T04:28:40;163127.72;;;-2.38;100.00
45255;BME280;30989;52.078;21.014;2022-12-11T04:31:14;163118.44;;;-2.41;100.00
45255;BME280;30989;52.078;21.014;2022-12-11T04:33:40;163109.16;;;-2.45;100.00
45255;BME280;30989;52.078;21.014;2022-12-11T04:36:07;163086.59;;;-2.53;100.00
45255;BME280;30989;52.078;21.014;2022-12-11T04:38:33;163091.91;;;-2.51;100.00
45255;BME280;30989;52.078;21.014;2022-12-11T04:41:00;163095.88;;;-2.50;100.00
45255;BME280;30989;52.078;21.014;2022-12-11T04:43:26;163095.88;;;-2.50;100.00
45255;BME280;30989;52.078;21.014;2022-12-11T04:46:10;163101.19;;;-2.48;100.00
45255;BME280;30989;52.078;21.014;2022-12-11T04:48:36;163089.25;;;-2.52;100.00
45255;BME280;30989;52.078;21.014;2022-12-11T04:51:02;163101.19;;;-2.48;100.00
45255;BME280;30989;52.078;21.014;2022-12-11T04:53:28;163081.28;;;-2.55;100.00
45255;BME280;30989;52.078;21.014;2022-12-11T04:55:54;163098.53;;;-2.49;100.00
45255;BME280;30989;52.078;21.014;2022-12-11T04:58:20;163095.88;;;-2.50;100.00
45255;BME280;30989;52.078;21.014;2022-12-11T05:00:45;163078.63;;;-2.56;100.00
45255;BME280;30989;52.078;21.014;2022-12-11T05:03:11;163085.25;;;-2.54;100.00
45255;BME280;30989;52.078;21.014;2022-12-11T05:05:37;163066.69;;;-2.61;100.00
45255;BME280;30989;52.078;21.014;2022-12-11T05:08:03;163077.31;;;-2.57;100.00
45255;BME280;30989;52.078;21.014;2022-12-11T05:10:28;163075.97;;;-2.57;100.00
45255;BME280;30989;52.078;21.014;2022-12-11T05:12:54;163069.34;;;-2.60;100.00
45255;BME280;30989;52.078;21.014;2022-12-11T05:15:19;163064.03;;;-2.62;100.00
45255;BME280;30989;52.078;21.014;2022-12-11T05:17:45;163061.38;;;-2.63;100.00
45255;BME280;30989;52.078;21.014;2022-12-11T05:20:10;163064.03;;;-2.62;100.00
45255;BME280;30989;52.078;21.014;2022-12-11T05:22:37;163053.41;;;-2.66;100.00
45255;BME280;30989;52.078;21.014;2022-12-11T05:25:02;163048.09;;;-2.68;100.00
45255;BME280;30989;52.078;21.014;2022-12-11T05:27:28;163044.13;;;-2.70;100.00
45255;BME280;30989;52.078;21.014;2022-12-11T05:29:53;163038.81;;;-2.72;100.00
45255;BME280;30989;52.078;21.014;2022-12-11T05:32:19;163034.84;;;-2.73;100.00
45255;BME280;30989;52.078;21.014;2022-12-11T05:34:44;163029.53;;;-2.75;100.00
45255;BME280;30989;52.078;21.014;2022-12-11T05:37:10;163033.50;;;-2.74;100.00
45255;BME280;30989;52.078;21.014;2022-12-11T05:39:36;163022.91;;;-2.78;100.00
45255;BME280;30989;52.078;21.014;2022-12-11T05:42:01;163018.91;;;-2.79;100.00
45255;BME280;30989;52.078;21.014;2022-12-11T05:44:27;163013.59;;;-2.81;100.00
45255;BME280;30989;52.078;21.014;2022-12-11T05:46:52;163013.59;;;-2.81;100.00
45255;BME280;30989;52.078;21.014;2022-12-11T05:49:18;163001.66;;;-2.86;100.00
45255;BME280;30989;52.078;21.014;2022-12-11T05:51:43;163005.66;;;-2.84;100.00
45255;BME280;30989;52.078;21.014;2022-12-11T05:54:09;163003.00;;;-2.85;100.00
45255;BME280;30989;52.078;21.014;2022-12-11T05:56:35;162997.69;;;-2.87;100.00
45255;BME280;30989;52.078;21.014;2022-12-11T05:59:02;162995.03;;;-2.88;100.00
45255;BME280;30989;52.078;21.014;2022-12-11T06:01:34;162996.34;;;-2.88;100.00
45255;BME280;30989;52.078;21.014;2022-12-11T06:04:04;162979.09;;;-2.95;100.00
45255;BME280;30989;52.078;21.014;2022-12-11T06:06:30;163001.66;;;-2.86;100.00
45255;BME280;30989;52.078;21.014;2022-12-11T06:08:57;162995.03;;;-2.88;100.00
45255;BME280;30989;52.078;21.014;2022-12-11T06:11:24;163001.66;;;-2.86;100.00
45255;BME280;30989;52.078;21.014;2022-12-11T06:13:51;162997.69;;;-2.87;100.00
45255;BME280;30989;52.078;21.014;2022-12-11T06:16:17;162995.03;;;-2.88;100.00
45255;BME280;30989;52.078;21.014;2022-12-11T06:18:47;162995.03;;;-2.88;100.00
45255;BME280;30989;52.078;21.014;2022-12-11T06:21:18;162955.22;;;-3.04;100.00
45255;BME280;30989;52.078;21.014;2022-12-11T06:23:45;162973.81;;;-2.97;100.00
45255;BME280;30989;52.078;21.014;2022-12-11T06:26:12;162976.47;;;-2.96;100.00
45255;BME280;30989;52.078;21.014;2022-12-11T06:28:38;162976.47;;;-2.96;100.00
45255;BME280;30989;52.078;21.014;2022-12-11T06:31:04;162957.88;;;-3.03;100.00
45255;BME280;30989;52.078;21.014;2022-12-11T06:33:30;162972.47;;;-2.97;100.00
45255;BME280;30989;52.078;21.014;2022-12-11T06:35:55;162957.88;;;-3.03;100.00
45255;BME280;30989;52.078;21.014;2022-12-11T06:38:21;162960.53;;;-3.02;100.00
45255;BME280;30989;52.078;21.014;2022-12-11T06:40:56;162961.88;;;-3.01;100.00
45255;BME280;30989;52.078;21.014;2022-12-11T06:43:22;162934.00;;;-3.12;100.00
45255;BME280;30989;52.078;21.014;2022-12-11T06:45:48;162943.28;;;-3.08;100.00
45255;BME280;30989;52.078;21.014;2022-12-11T06:48:14;162941.97;;;-3.09;100.00
45255;BME280;30989;52.078;21.014;2022-12-11T06:50:39;162935.34;;;-3.11;100.00
45255;BME280;30989;52.078;21.014;2022-12-11T06:53:05;162926.06;;;-3.15;100.00
45255;BME280;30989;52.078;21.014;2022-12-11T06:55:34;162920.75;;;-3.17;100.00
45255;BME280;30989;52.078;21.014;2022-12-11T06:58:00;162919.41;;;-3.17;100.00
45255;BME280;30989;52.078;21.014;2022-12-11T07:00:25;162923.41;;;-3.16;100.00
45255;BME280;30989;52.078;21.014;2022-12-11T07:02:51;162914.09;;;-3.19;100.00
45255;BME280;30989;52.078;21.014;2022-12-11T07:05:16;162910.13;;;-3.21;100.00
45255;BME280;30989;52.078;21.014;2022-12-11T07:07:42;162924.72;;;-3.15;100.00
45255;BME280;30989;52.078;21.014;2022-12-11T07:10:08;162920.75;;;-3.17;100.00
45255;BME280;30989;52.078;21.014;2022-12-11T07:12:34;162919.41;;;-3.17;100.00
45255;BME280;30989;52.078;21.014;2022-12-11T07:15:00;162923.41;;;-3.16;100.00
45255;BME280;30989;52.078;21.014;2022-12-11T07:17:27;162918.09;;;-3.18;100.00
45255;BME280;30989;52.078;21.014;2022-12-11T07:19:53;162911.47;;;-3.20;100.00
45255;BME280;30989;52.078;21.014;2022-12-11T07:22:18;162924.72;;;-3.15;100.00
45255;BME280;30989;52.078;21.014;2022-12-11T07:24:44;162912.78;;;-3.20;100.00
45255;BME280;30989;52.078;21.014;2022-12-11T07:27:10;162914.09;;;-3.19;100.00
45255;BME280;30989;52.078;21.014;2022-12-11T07:29:35;162910.13;;;-3.21;100.00
45255;BME280;30989;52.078;21.014;2022-12-11T07:32:01;162898.19;;;-3.26;100.00
45255;BME280;30989;52.078;21.014;2022-12-11T07:34:26;162898.19;;;-3.26;100.00
45255;BME280;30989;52.078;21.014;2022-12-11T07:36:52;162908.81;;;-3.21;100.00
45255;BME280;30989;52.078;21.014;2022-12-11T07:39:20;162914.09;;;-3.19;100.00
45255;BME280;30989;52.078;21.014;2022-12-11T07:41:46;162910.13;;;-3.21;100.00
45255;BME280;30989;52.078;21.014;2022-12-11T07:44:11;162904.81;;;-3.23;100.00
45255;BME280;30989;52.078;21.014;2022-12-11T07:46:38;162904.81;;;-3.23;100.00
45255;BME280;30989;52.078;21.014;2022-12-11T07:49:05;162914.09;;;-3.19;100.00
45255;BME280;30989;52.078;21.014;2022-12-11T07:51:33;162912.78;;;-3.20;100.00
45255;BME280;30989;52.078;21.014;2022-12-11T07:54:26;162910.13;;;-3.21;100.00
45255;BME280;30989;52.078;21.014;2022-12-11T07:56:51;162904.81;;;-3.23;100.00
45255;BME280;30989;52.078;21.014;2022-12-11T07:59:16;162896.88;;;-3.26;100.00
45255;BME280;30989;52.078;21.014;2022-12-11T08:01:42;162894.22;;;-3.27;100.00
45255;BME280;30989;52.078;21.014;2022-12-11T08:04:10;162910.13;;;-3.21;100.00
45255;BME280;30989;52.078;21.014;2022-12-11T08:06:37;162910.13;;;-3.21;100.00
45255;BME280;30989;52.078;21.014;2022-12-11T08:09:06;162899.53;;;-3.25;100.00
45255;BME280;30989;52.078;21.014;2022-12-11T08:11:32;162890.22;;;-3.29;100.00
45255;BME280;30989;52.078;21.014;2022-12-11T08:13:58;162906.16;;;-3.22;100.00
45255;BME280;30989;52.078;21.014;2022-12-11T08:16:24;162904.81;;;-3.23;100.00
45255;BME280;30989;52.078;21.014;2022-12-11T08:18:50;162902.19;;;-3.24;100.00
45255;BME280;30989;52.078;21.014;2022-12-11T08:21:18;162916.75;;;-3.18;100.00
45255;BME280;30989;52.078;21.014;2022-12-11T08:23:44;162924.72;;;-3.15;100.00
45255;BME280;30989;52.078;21.014;2022-12-11T08:26:19;162919.41;;;-3.17;100.00
45255;BME280;30989;52.078;21.014;2022-12-11T08:28:45;162910.13;;;-3.21;100.00
45255;BME280;30989;52.078;21.014;2022-12-11T08:31:12;162915.44;;;-3.19;100.00
45255;BME280;30989;52.078;21.014;2022-12-11T08:33:38;162911.47;;;-3.20;100.00
45255;BME280;30989;52.078;21.014;2022-12-11T08:36:05;162903.50;;;-3.23;100.00
45255;BME280;30989;52.078;21.014;2022-12-11T08:38:33;162888.91;;;-3.29;100.00
45255;BME280;30989;52.078;21.014;2022-12-11T08:40:58;162895.53;;;-3.27;100.00
45255;BME280;30989;52.078;21.014;2022-12-11T08:43:24;162903.50;;;-3.23;100.00
45255;BME280;30989;52.078;21.014;2022-12-11T08:45:49;162910.13;;;-3.21;100.00
45255;BME280;30989;52.078;21.014;2022-12-11T08:48:16;162910.13;;;-3.21;100.00
45255;BME280;30989;52.078;21.014;2022-12-11T08:50:41;162887.59;;;-3.30;100.00
45255;BME280;30989;52.078;21.014;2022-12-11T08:53:07;162903.50;;;-3.23;100.00
45255;BME280;30989;52.078;21.014;2022-12-11T08:55:32;162922.06;;;-3.16;100.00
45255;BME280;30989;52.078;21.014;2022-12-11T08:57:58;162908.81;;;-3.21;100.00
45255;BME280;30989;52.078;21.014;2022-12-11T09:00:26;162904.81;;;-3.23;100.00
45255;BME280;30989;52.078;21.014;2022-12-11T09:02:51;162888.91;;;-3.29;100.00
45255;BME280;30989;52.078;21.014;2022-12-11T09:05:17;162887.59;;;-3.30;100.00
45255;BME280;30989;52.078;21.014;2022-12-11T09:07:42;162879.63;;;-3.33;100.00
45255;BME280;30989;52.078;21.014;2022-12-11T09:10:09;162863.72;;;-3.39;100.00
45255;BME280;30989;52.078;21.014;2022-12-11T09:12:35;162880.94;;;-3.32;100.00
45255;BME280;30989;52.078;21.014;2022-12-11T09:15:01;162880.94;;;-3.32;100.00
45255;BME280;30989;52.078;21.014;2022-12-11T09:17:26;162870.34;;;-3.36;100.00
45255;BME280;30989;52.078;21.014;2022-12-11T09:19:52;162871.66;;;-3.36;100.00
45255;BME280;30989;52.078;21.014;2022-12-11T09:22:17;162886.25;;;-3.30;100.00
45255;BME280;30989;52.078;21.014;2022-12-11T09:24:43;162902.19;;;-3.24;100.00
45255;BME280;30989;52.078;21.014;2022-12-11T09:27:08;162919.41;;;-3.17;100.00
45255;BME280;30989;52.078;21.014;2022-12-11T09:29:34;162920.75;;;-3.17;100.00
45255;BME280;30989;52.078;21.014;2022-12-11T09:31:59;162920.75;;;-3.17;100.00
45255;BME280;30989;52.078;21.014;2022-12-11T09:34:24;162920.75;;;-3.17;100.00
45255;BME280;30989;52.078;21.014;2022-12-11T09:36:50;162930.03;;;-3.13;100.00
45255;BME280;30989;52.078;21.014;2022-12-11T09:39:16;162931.34;;;-3.13;100.00
45255;BME280;30989;52.078;21.014;2022-12-11T09:44:30;162934.00;;;-3.12;100.00
45255;BME280;30989;52.078;21.014;2022-12-11T09:46:57;162926.06;;;-3.15;100.00
45255;BME280;30989;52.078;21.014;2022-12-11T09:49:33;162912.78;;;-3.20;100.00
45255;BME280;30989;52.078;21.014;2022-12-11T09:54:34;162918.09;;;-3.18;100.00
45255;BME280;30989;52.078;21.014;2022-12-11T09:57:15;162924.72;;;-3.15;100.00
45255;BME280;30989;52.078;21.014;2022-12-11T10:07:58;162937.97;;;-3.10;100.00
45255;BME280;30989;52.078;21.014;2022-12-11T10:10:34;162947.28;;;-3.07;100.00
45255;BME280;30989;52.078;21.014;2022-12-11T10:18:32;162941.97;;;-3.09;100.00
45255;BME280;30989;52.078;21.014;2022-12-11T10:21:00;162936.66;;;-3.11;100.00
45255;BME280;30989;52.078;21.014;2022-12-11T10:23:35;162943.28;;;-3.08;100.00
45255;BME280;30989;52.078;21.014;2022-12-11T10:26:11;162936.66;;;-3.11;100.00
45255;BME280;30989;52.078;21.014;2022-12-11T10:28:38;162949.94;;;-3.06;100.00
45255;BME280;30989;52.078;21.014;2022-12-11T10:33:53;162944.63;;;-3.08;100.00
45255;BME280;30989;52.078;21.014;2022-12-11T10:36:44;162949.94;;;-3.06;100.00
45255;BME280;30989;52.078;21.014;2022-12-11T10:39:15;162945.94;;;-3.07;100.00
45255;BME280;30989;52.078;21.014;2022-12-11T10:41:42;162920.75;;;-3.17;100.00
45255;BME280;30989;52.078;21.014;2022-12-11T10:44:15;162928.69;;;-3.14;100.00
45255;BME280;30989;52.078;21.014;2022-12-11T10:46:42;162934.00;;;-3.12;100.00
45255;BME280;30989;52.078;21.014;2022-12-11T10:49:19;162926.06;;;-3.15;100.00
45255;BME280;30989;52.078;21.014;2022-12-11T10:51:45;162923.41;;;-3.16;100.00
45255;BME280;30989;52.078;21.014;2022-12-11T10:54:30;162914.09;;;-3.19;100.00
45255;BME280;30989;52.078;21.014;2022-12-11T10:56:57;162894.22;;;-3.27;100.00
45255;BME280;30989;52.078;21.014;2022-12-11T10:59:34;162886.25;;;-3.30;100.00
45255;BME280;30989;52.078;21.014;2022-12-11T11:02:03;162891.56;;;-3.28;100.00
45255;BME280;30989;52.078;21.014;2022-12-11T11:04:35;162888.91;;;-3.29;100.00
45255;BME280;30989;52.078;21.014;2022-12-11T11:07:14;162883.59;;;-3.31;100.00
45255;BME280;30989;52.078;21.014;2022-12-11T11:09:41;162873.00;;;-3.35;100.00
45255;BME280;30989;52.078;21.014;2022-12-11T11:12:17;162882.28;;;-3.32;100.00
45255;BME280;30989;52.078;21.014;2022-12-11T11:14:42;162875.66;;;-3.34;100.00
45255;BME280;30989;52.078;21.014;2022-12-11T11:17:15;162879.63;;;-3.33;100.00
45255;BME280;30989;52.078;21.014;2022-12-11T11:19:45;162883.59;;;-3.31;100.00
45255;BME280;30989;52.078;21.014;2022-12-11T11:22:15;162895.53;;;-3.27;100.00
45255;BME280;30989;52.078;21.014;2022-12-11T11:24:52;162904.81;;;-3.23;100.00
45255;BME280;30989;52.078;21.014;2022-12-11T11:27:36;162920.75;;;-3.17;100.00
45255;BME280;30989;52.078;21.014;2022-12-11T11:30:16;162926.06;;;-3.15;100.00
45255;BME280;30989;52.078;21.014;2022-12-11T11:32:42;162892.88;;;-3.28;100.00
45255;BME280;30989;52.078;21.014;2022-12-11T11:37:40;162911.47;;;-3.20;100.00
45255;BME280;30989;52.078;21.014;2022-12-11T11:40:28;162902.19;;;-3.24;100.00
45255;BME280;30989;52.078;21.014;2022-12-11T11:43:17;162876.97;;;-3.34;100.00
45255;BME280;30989;52.078;21.014;2022-12-11T11:46:18;162903.50;;;-3.23;100.00
45255;BME280;30989;52.078;21.014;2022-12-11T11:49:16;162907.47;;;-3.22;100.00
45255;BME280;30989;52.078;21.014;2022-12-11T11:52:00;162911.47;;;-3.20;100.00
45255;BME280;30989;52.078;21.014;2022-12-11T11:55:02;162907.47;;;-3.22;100.00
45255;BME280;30989;52.078;21.014;2022-12-11T11:57:31;162898.19;;;-3.26;100.00
45255;BME280;30989;52.078;21.014;2022-12-11T12:00:16;162891.56;;;-3.28;100.00
45255;BME280;30989;52.078;21.014;2022-12-11T12:02:42;162873.00;;;-3.35;100.00
45255;BME280;30989;52.078;21.014;2022-12-11T12:05:11;162880.94;;;-3.32;100.00
45255;BME280;30989;52.078;21.014;2022-12-11T12:07:46;162883.59;;;-3.31;100.00
45255;BME280;30989;52.078;21.014;2022-12-11T12:10:31;162883.59;;;-3.31;100.00
45255;BME280;30989;52.078;21.014;2022-12-11T12:13:21;162880.94;;;-3.32;100.00
45255;BME280;30989;52.078;21.014;2022-12-11T12:15:59;162870.34;;;-3.36;100.00
45255;BME280;30989;52.078;21.014;2022-12-11T12:18:38;162866.38;;;-3.38;100.00
45255;BME280;30989;52.078;21.014;2022-12-11T12:21:28;162867.69;;;-3.37;100.00
45255;BME280;30989;52.078;21.014;2022-12-11T12:24:11;162878.31;;;-3.33;100.00
45255;BME280;30989;52.078;21.014;2022-12-11T12:26:45;162870.34;;;-3.36;100.00
45255;BME280;30989;52.078;21.014;2022-12-11T12:29:48;162855.75;;;-3.42;100.00
45255;BME280;30989;52.078;21.014;2022-12-11T12:35:08;162883.59;;;-3.31;100.00
45255;BME280;30989;52.078;21.014;2022-12-11T12:37:56;162882.28;;;-3.32;100.00
45255;BME280;30989;52.078;21.014;2022-12-11T12:40:48;162887.59;;;-3.30;100.00
45255;BME280;30989;52.078;21.014;2022-12-11T12:46:22;162880.94;;;-3.32;100.00
45255;BME280;30989;52.078;21.014;2022-12-11T12:48:54;162891.56;;;-3.28;100.00
45255;BME280;30989;52.078;21.014;2022-12-11T12:51:21;162891.56;;;-3.28;100.00
45255;BME280;30989;52.078;21.014;2022-12-11T12:54:05;162880.94;;;-3.32;100.00
45255;BME280;30989;52.078;21.014;2022-12-11T12:56:35;162886.25;;;-3.30;100.00
45255;BME280;30989;52.078;21.014;2022-12-11T12:59:01;162873.00;;;-3.35;100.00
45255;BME280;30989;52.078;21.014;2022-12-11T13:01:28;162875.66;;;-3.34;100.00
45255;BME280;30989;52.078;21.014;2022-12-11T13:03:57;162862.38;;;-3.39;100.00
45255;BME280;30989;52.078;21.014;2022-12-11T13:06:33;162854.44;;;-3.42;100.00
45255;BME280;30989;52.078;21.014;2022-12-11T13:09:21;162843.81;;;-3.46;100.00
45255;BME280;30989;52.078;21.014;2022-12-11T13:11:49;162837.19;;;-3.49;100.00
45255;BME280;30989;52.078;21.014;2022-12-11T13:16:48;162827.91;;;-3.52;100.00
45255;BME280;30989;52.078;21.014;2022-12-11T13:19:27;162817.28;;;-3.57;100.00
45255;BME280;30989;52.078;21.014;2022-12-11T13:22:02;162833.22;;;-3.50;100.00
45255;BME280;30989;52.078;21.014;2022-12-11T13:24:30;162822.59;;;-3.54;100.00